Time;durP1;ratioP1;P1;durP2;ratioP2;P2;SDS_P1;SDS_P2;PMS_P1;PMS_P2;Temp;Humidity;BMP_temperature;BMP_pressure;BME280_temperature;BME280_humidity;BME280_pressure;Samples;Min_cycle;Max_cycle;Signal;HPM_P1;HPM_P2
2022/05/28 00:00:44;;;;;;;;;;;;;;;22.86;40.41;99638.59;2067814;28;904;-60
2022/05/28 00:01:44;;;;;;;;;;;;;;;22.85;40.73;99636.88;2067848;28;887;-60
2022/05/28 00:02:45;;;;;;;;;;;;;;;22.84;40.71;99636.03;2068005;28;876;-60
2022/05/28 00:03:46;;;;;;;;;;;;;;;22.83;41.07;99633.41;2067915;28;1739;-60
2022/05/28 00:04:46;;;;;;;;;;;;;;;22.82;40.75;99643.34;2067866;28;805;-60
2022/05/28 00:05:46;;;;;;;;;;;;;;;22.82;41.57;99637.94;2067682;28;1894;-60
2022/05/28 00:06:46;;;;;;;;;;;;;;;22.80;40.98;99640.72;2059109;28;1021;-60
2022/05/28 00:07:47;;;;;;;;;;;;;;;22.80;41.84;99637.16;2059158;28;874;-60
2022/05/28 00:08:47;;;;;;;;;;;;;;;22.79;41.31;99647.09;2067656;28;982;-60
2022/05/28 00:09:48;;;;;;;;;;;;;;;22.79;41.87;99640.84;2067767;28;866;-60
2022/05/28 00:10:48;;;;;;;;;;;;;;;22.78;42.18;99642.66;2067740;28;1037;-60
2022/05/28 00:11:48;;;;;;;;;;;;;;;22.77;41.38;99640.91;2067773;28;884;-59
2022/05/28 00:12:48;;;;;;;;;;;;;;;22.77;41.71;99631.97;2058975;28;1397;-60
2022/05/28 00:13:49;;;;;;;;;;;;;;;22.76;41.55;99641.03;2059113;28;1034;-60
2022/05/28 00:14:49;;;;;;;;;;;;;;;22.76;41.48;99638.31;2067760;28;986;-60
2022/05/28 00:15:50;;;;;;;;;;;;;;;22.74;41.62;99632.16;2067695;28;772;-60
2022/05/28 00:16:50;;;;;;;;;;;;;;;22.74;41.99;99634.84;2059081;28;1464;-60
2022/05/28 00:17:50;;;;;;;;;;;;;;;22.73;42.19;99631.25;2058923;28;1432;-59
2022/05/28 00:18:52;;;;;;;;;;;;;;;22.73;41.75;99635.81;2059653;28;787;-60
2022/05/28 00:19:52;;;;;;;;;;;;;;;22.72;42.16;99632.22;2059704;28;832;-60
2022/05/28 00:20:52;;;;;;;;;;;;;;;22.73;41.92;99638.50;2059713;28;769;-60
2022/05/28 00:21:52;;;;;;;;;;;;;;;22.71;42.05;99630.50;2059633;28;939;-60
2022/05/28 00:22:52;;;;;;;;;;;;;;;22.71;42.17;99637.72;2059783;28;990;-60
2022/05/28 00:23:53;;;;;;;;;;;;;;;22.71;42.21;99635.88;2059604;28;912;-60
2022/05/28 00:24:54;;;;;;;;;;;;;;;22.70;41.95;99636.84;2059624;28;876;-60
2022/05/28 00:25:54;;;;;;;;;;;;;;;22.70;42.87;99633.28;2059580;28;1910;-60
2022/05/28 00:26:54;;;;;;;;;;;;;;;22.69;42.97;99632.41;2058948;28;1130;-60
2022/05/28 00:27:55;;;;;;;;;;;;;;;22.68;43.00;99633.38;2059047;28;939;-60
2022/05/28 00:28:55;;;;;;;;;;;;;;;22.69;42.54;99634.25;2059581;28;887;-60
2022/05/28 00:29:55;;;;;;;;;;;;;;;22.69;43.12;99636.97;2059606;28;978;-60
2022/05/28 00:30:55;;;;;;;;;;;;;;;22.67;43.13;99628.94;2059607;28;1041;-60
2022/05/28 00:31:56;;;;;;;;;;;;;;;22.65;42.56;99630.88;2059686;28;823;-60
2022/05/28 00:32:56;;;;;;;;;;;;;;;22.64;42.77;99630.00;2059604;28;839;-60
2022/05/28 00:33:56;;;;;;;;;;;;;;;22.64;42.56;99632.69;2059565;28;958;-60
2022/05/28 00:34:57;;;;;;;;;;;;;;;22.63;43.05;99630.13;2059554;28;883;-60
2022/05/28 00:35:57;;;;;;;;;;;;;;;22.62;43.58;99628.38;2059572;28;990;-60
2022/05/28 00:36:57;;;;;;;;;;;;;;;22.63;42.82;99635.50;2059575;28;832;-60
2022/05/28 00:37:58;;;;;;;;;;;;;;;22.62;42.78;99634.63;2059502;28;1212;-60
2022/05/28 00:38:58;;;;;;;;;;;;;;;22.61;42.85;99630.19;2058836;28;1276;-60
2022/05/28 00:40:00;;;;;;;;;;;;;;;22.61;43.02;99629.34;2058917;28;1021;-60
2022/05/28 00:41:00;;;;;;;;;;;;;;;22.62;43.61;99636.47;2058846;28;935;-60
2022/05/28 00:42:00;;;;;;;;;;;;;;;22.61;43.52;99629.34;2058933;28;974;-60
2022/05/28 00:43:01;;;;;;;;;;;;;;;22.60;42.80;99636.56;2059489;28;971;-60
2022/05/28 00:44:03;;;;;;;;;;;;;;;22.60;43.69;99630.31;2059488;28;1073;-60
2022/05/28 00:45:04;;;;;;;;;;;;;;;22.59;43.14;99632.13;2059306;28;1168;-60
2022/05/28 00:46:10;;;;;;;;;;;;;;;22.58;43.61;99635.78;2059354;28;1965;-60
2022/05/28 00:47:11;;;;;;;;;;;;;;;22.58;43.01;99630.38;2059499;28;856;-61
2022/05/28 00:48:13;;;;;;;;;;;;;;;22.58;43.04;99627.69;2059556;28;832;-60
2022/05/28 00:49:16;;;;;;;;;;;;;;;22.59;43.12;99633.97;2059478;28;994;-60
2022/05/28 00:50:17;;;;;;;;;;;;;;;22.56;43.23;99634.16;2059477;28;986;-60
2022/05/28 00:51:20;;;;;;;;;;;;;;;22.57;43.83;99633.19;2059702;28;702;-60
2022/05/28 00:52:22;;;;;;;;;;;;;;;22.56;43.12;99629.59;2059401;28;903;-60
2022/05/28 00:53:23;;;;;;;;;;;;;;;22.56;43.75;99631.44;2059438;28;800;-60
2022/05/28 00:54:24;;;;;;;;;;;;;;;22.55;43.97;99627.00;2059470;28;911;-60
2022/05/28 00:55:24;;;;;;;;;;;;;;;22.55;43.66;99627.88;2059556;28;1037;-60
2022/05/28 00:56:24;;;;;;;;;;;;;;;22.54;43.41;99628.81;2059541;28;821;-60
2022/05/28 00:57:25;;;;;;;;;;;;;;;22.54;43.62;99628.81;2059373;28;784;-60
2022/05/28 00:58:25;;;;;;;;;;;;;;;22.54;43.35;99630.66;2059424;28;836;-60
2022/05/28 00:59:25;;;;;;;;;;;;;;;22.54;43.40;99628.81;2058722;28;1157;-60
2022/05/28 01:00:25;;;;;;;;;;;;;;;22.54;43.57;99625.28;2058820;28;812;-60
2022/05/28 01:01:27;;;;;;;;;;;;;;;22.50;44.33;99625.47;2059526;28;753;-60
2022/05/28 01:02:44;;;;;;;;;;;;;;;22.51;43.60;99626.31;2059289;28;1058;-60
2022/05/28 01:03:44;;;;;;;;;;;;;;;22.51;43.42;99623.63;2059366;28;1002;-60
2022/05/28 01:04:59;;;;;;;;;;;;;;;22.51;44.23;99623.63;2059367;28;1018;-60
2022/05/28 01:06:05;;;;;;;;;;;;;;;22.51;43.97;99620.91;2059339;28;1882;-60
2022/05/28 01:07:08;;;;;;;;;;;;;;;22.50;43.96;99630.84;2059351;28;866;-60
2022/05/28 01:08:15;;;;;;;;;;;;;;;22.51;44.04;99623.63;2059351;28;1037;-60
2022/05/28 01:09:30;;;;;;;;;;;;;;;22.50;43.56;99624.56;2058568;28;793;-60
2022/05/28 01:10:30;;;;;;;;;;;;;;;22.49;43.76;99621.03;2059315;28;946;-60
2022/05/28 01:11:37;;;;;;;;;;;;;;;22.49;43.43;99626.41;2059345;28;847;-60
2022/05/28 01:12:43;;;;;;;;;;;;;;;22.49;43.62;99615.63;2058622;28;1173;-60
2022/05/28 01:13:55;;;;;;;;;;;;;;;22.50;43.75;99620.06;2058625;28;990;-60
2022/05/28 01:15:00;;;;;;;;;;;;;;;22.49;44.44;99625.53;2058810;28;955;-61
2022/05/28 01:16:22;;;;;;;;;;;;;;;22.49;44.14;99620.13;2059268;28;1033;-60
2022/05/28 01:17:31;;;;;;;;;;;;;;;22.49;44.06;99622.84;2058440;28;1103;-60
2022/05/28 01:18:31;;;;;;;;;;;;;;;22.49;43.71;99620.13;2058913;28;757;-60
2022/05/28 01:19:32;;;;;;;;;;;;;;;22.49;43.76;99614.75;2058682;28;1435;-60
2022/05/28 01:20:40;;;;;;;;;;;;;;;22.48;43.75;99621.09;2058679;28;792;-60
2022/05/28 01:21:43;;;;;;;;;;;;;;;22.48;44.23;99615.69;2059294;28;856;-61
2022/05/28 01:22:52;;;;;;;;;;;;;;;22.47;43.77;99616.66;2059182;28;859;-60
2022/05/28 01:23:55;;;;;;;;;;;;;;;22.47;44.25;99614.84;2059277;28;862;-60
2022/05/28 01:24:58;;;;;;;;;;;;;;;22.46;43.73;99604.13;2059313;28;888;-60
2022/05/28 01:26:04;;;;;;;;;;;;;;;22.46;44.44;99604.13;2059115;28;1906;-60
2022/05/28 01:27:08;;;;;;;;;;;;;;;22.46;44.31;99609.53;2059156;28;899;-60
2022/05/28 01:28:10;;;;;;;;;;;;;;;22.47;44.44;99612.16;2059184;28;823;-60
2022/05/28 01:29:12;;;;;;;;;;;;;;;22.47;44.07;99611.25;2059184;28;986;-60
2022/05/28 01:30:13;;;;;;;;;;;;;;;22.46;43.81;99609.53;2059125;28;974;-60
2022/05/28 01:31:15;;;;;;;;;;;;;;;22.45;44.11;99607.78;2059176;28;812;-60
2022/05/28 01:32:16;;;;;;;;;;;;;;;22.45;44.60;99613.19;2059170;28;863;-60
2022/05/28 01:33:16;;;;;;;;;;;;;;;22.45;43.92;99608.69;2059123;28;974;-60
2022/05/28 01:34:18;;;;;;;;;;;;;;;22.45;44.36;99613.19;2059072;28;820;-60
2022/05/28 01:35:20;;;;;;;;;;;;;;;22.45;44.54;99608.69;2059186;28;835;-60
2022/05/28 01:36:20;;;;;;;;;;;;;;;22.44;44.55;99606.06;2059114;28;1069;-59
2022/05/28 01:37:21;;;;;;;;;;;;;;;22.44;44.04;99611.44;2058412;28;947;-60
2022/05/28 01:38:23;;;;;;;;;;;;;;;22.44;43.71;99606.94;2058549;28;797;-60
2022/05/28 01:39:23;;;;;;;;;;;;;;;22.44;43.67;99615.03;2059044;28;979;-60
2022/05/28 01:40:24;;;;;;;;;;;;;;;22.45;44.14;99608.69;2059054;28;875;-60
2022/05/28 01:41:25;;;;;;;;;;;;;;;22.44;44.37;99600.66;2059117;28;1010;-60
2022/05/28 01:42:26;;;;;;;;;;;;;;;22.43;44.02;99607.88;2058402;28;809;-60
2022/05/28 01:43:27;;;;;;;;;;;;;;;22.43;43.98;99610.56;2058678;28;679;-60
2022/05/28 01:44:28;;;;;;;;;;;;;;;22.43;43.92;99605.16;2059016;28;776;-60
2022/05/28 01:45:29;;;;;;;;;;;;;;;22.43;44.04;99606.97;2058980;28;1961;-60
2022/05/28 01:46:32;;;;;;;;;;;;;;;22.43;43.88;99609.69;2058984;28;788;-60
2022/05/28 01:47:33;;;;;;;;;;;;;;;22.42;44.67;99608.81;2059005;28;1072;-60
2022/05/28 01:48:35;;;;;;;;;;;;;;;22.42;43.96;99610.63;2059034;28;895;-60
2022/05/28 01:49:35;;;;;;;;;;;;;;;22.42;44.52;99608.81;2058986;28;816;-60
2022/05/28 01:50:40;;;;;;;;;;;;;;;22.43;43.94;99606.97;2059038;28;994;-60
2022/05/28 01:51:42;;;;;;;;;;;;;;;22.43;44.13;99612.38;2059000;28;812;-60
2022/05/28 01:52:43;;;;;;;;;;;;;;;22.40;44.04;99610.75;2058974;28;792;-60
2022/05/28 01:55:05;;;;;;;;;;;;;;;22.41;44.06;99612.47;2059000;28;627;-60
2022/05/28 01:56:06;;;;;;;;;;;;;;;22.42;44.64;99613.34;2059028;28;990;-60
2022/05/28 01:57:06;;;;;;;;;;;;;;;22.41;44.65;99612.47;2058916;28;804;-60
2022/05/28 01:58:07;;;;;;;;;;;;;;;22.41;43.93;99617.00;2058840;28;840;-60
2022/05/28 01:59:07;;;;;;;;;;;;;;;22.42;44.63;99613.34;2058870;28;907;-61
2022/05/28 02:00:09;;;;;;;;;;;;;;;22.41;44.25;99612.47;2058919;28;831;-60
2022/05/28 02:01:10;;;;;;;;;;;;;;;22.41;44.29;99617.00;2058913;28;879;-60
2022/05/28 02:02:11;;;;;;;;;;;;;;;22.41;44.75;99611.59;2058788;28;982;-60
2022/05/28 02:03:12;;;;;;;;;;;;;;;22.39;43.97;99611.72;2058950;28;801;-60
2022/05/28 02:04:12;;;;;;;;;;;;;;;22.40;44.06;99616.16;2059027;28;1029;-60
2022/05/28 02:05:13;;;;;;;;;;;;;;;22.39;44.33;99613.53;2058898;28;836;-60
2022/05/28 02:06:13;;;;;;;;;;;;;;;22.40;44.20;99615.25;2058839;28;1894;-61
2022/05/28 02:07:15;;;;;;;;;;;;;;;22.40;44.40;99615.25;2058845;28;1033;-60
2022/05/28 02:08:15;;;;;;;;;;;;;;;22.39;44.90;99614.41;2059004;28;880;-60
2022/05/28 02:09:17;;;;;;;;;;;;;;;22.40;45.00;99612.56;2058878;28;879;-60
2022/05/28 02:10:18;;;;;;;;;;;;;;;22.39;44.50;99608.13;2058808;28;780;-60
2022/05/28 02:11:26;;;;;;;;;;;;;;;22.39;44.20;99614.41;2058863;28;975;-60
2022/05/28 02:12:29;;;;;;;;;;;;;;;22.38;44.09;99615.38;2058868;28;804;-60
2022/05/28 02:13:34;;;;;;;;;;;;;;;22.38;44.29;99607.28;2058870;28;785;-61
2022/05/28 02:14:43;;;;;;;;;;;;;;;22.38;44.33;99609.97;2058799;28;994;-60
2022/05/28 02:15:45;;;;;;;;;;;;;;;22.36;44.14;99612.78;2058882;28;970;-60
2022/05/28 02:16:57;;;;;;;;;;;;;;;22.36;44.72;99615.47;2058855;28;1002;-60
2022/05/28 02:18:04;;;;;;;;;;;;;;;22.36;44.63;99607.38;2065766;28;1105;-60
2022/05/28 02:19:08;;;;;;;;;;;;;;;22.38;44.56;99611.78;2066829;28;922;-60
2022/05/28 02:20:19;;;;;;;;;;;;;;;22.37;44.27;99619.03;2066831;28;788;-60
2022/05/28 02:21:26;;;;;;;;;;;;;;;22.36;45.06;99615.47;2066894;28;1006;-60
2022/05/28 02:22:38;;;;;;;;;;;;;;;22.38;44.43;99617.19;2066850;28;843;-60
2022/05/28 02:23:49;;;;;;;;;;;;;;;22.37;44.15;99619.03;2066790;28;982;-60
2022/05/28 02:24:56;;;;;;;;;;;;;;;22.36;44.24;99614.59;2058104;28;1264;-60
2022/05/28 02:26:03;;;;;;;;;;;;;;;22.36;44.99;99620.00;2059023;28;1922;-60
2022/05/28 02:27:10;;;;;;;;;;;;;;;22.36;45.07;99615.47;2066783;28;1057;-60
2022/05/28 02:28:11;;;;;;;;;;;;;;;22.36;44.40;99620.00;2066776;28;879;-60
2022/05/28 02:29:13;;;;;;;;;;;;;;;22.36;44.45;99620.00;2066760;28;820;-60
2022/05/28 02:30:13;;;;;;;;;;;;;;;22.35;44.99;99618.25;2066923;28;871;-60
2022/05/28 02:31:15;;;;;;;;;;;;;;;22.35;44.80;99610.16;2066781;28;871;-60
2022/05/28 02:32:19;;;;;;;;;;;;;;;22.35;44.38;99621.84;2066758;28;843;-60
2022/05/28 02:33:20;;;;;;;;;;;;;;;22.35;44.46;99620.94;2066719;28;1056;-60
2022/05/28 02:34:21;;;;;;;;;;;;;;;22.34;44.23;99622.78;2066681;28;926;-61
2022/05/28 02:35:21;;;;;;;;;;;;;;;22.35;44.56;99620.94;2066695;28;769;-60
2022/05/28 02:36:21;;;;;;;;;;;;;;;22.34;44.91;99622.78;2066662;28;891;-60
2022/05/28 02:37:23;;;;;;;;;;;;;;;22.34;45.04;99621.91;2066678;28;1196;-60
2022/05/28 02:38:23;;;;;;;;;;;;;;;22.35;44.76;99624.53;2057990;28;951;-60
2022/05/28 02:39:23;;;;;;;;;;;;;;;22.33;45.15;99618.34;2058092;28;855;-60
2022/05/28 02:40:23;;;;;;;;;;;;;;;22.34;44.60;99627.31;2066549;28;990;-60
2022/05/28 02:41:24;;;;;;;;;;;;;;;22.34;45.06;99621.91;2066714;28;872;-60
2022/05/28 02:42:24;;;;;;;;;;;;;;;22.33;45.26;99620.16;2066750;28;862;-60
2022/05/28 02:43:25;;;;;;;;;;;;;;;22.34;44.41;99621.91;2066679;28;871;-60
2022/05/28 02:44:25;;;;;;;;;;;;;;;22.34;45.06;99627.31;2066689;28;1000;-60
2022/05/28 02:45:25;;;;;;;;;;;;;;;22.34;44.59;99624.59;2066549;28;1902;-60
2022/05/28 02:46:25;;;;;;;;;;;;;;;22.32;45.11;99627.41;2066640;28;812;-60
2022/05/28 02:47:25;;;;;;;;;;;;;;;22.32;44.51;99630.09;2066709;28;923;-60
2022/05/28 02:48:26;;;;;;;;;;;;;;;22.32;44.39;99624.72;2066636;28;986;-60
2022/05/28 02:49:26;;;;;;;;;;;;;;;22.32;44.62;99627.41;2066632;28;1029;-60
2022/05/28 02:50:27;;;;;;;;;;;;;;;22.32;44.91;99627.41;2066657;28;843;-60
2022/05/28 02:51:27;;;;;;;;;;;;;;;22.32;44.63;99626.53;2066654;28;839;-60
2022/05/28 02:52:27;;;;;;;;;;;;;;;22.32;44.83;99626.53;2066660;28;780;-60
2022/05/28 02:53:27;;;;;;;;;;;;;;;22.32;45.35;99629.22;2066603;28;1057;-60
2022/05/28 02:54:28;;;;;;;;;;;;;;;22.32;44.52;99626.53;2066646;28;831;-60
2022/05/28 02:55:28;;;;;;;;;;;;;;;22.31;45.05;99628.38;2066602;28;970;-60
2022/05/28 02:56:28;;;;;;;;;;;;;;;22.31;44.55;99630.19;2066614;28;688;-60
2022/05/28 02:57:28;;;;;;;;;;;;;;;22.31;44.76;99628.38;2057936;28;789;-60
2022/05/28 02:58:29;;;;;;;;;;;;;;;22.30;44.40;99626.63;2058075;28;712;-60
2022/05/28 02:59:30;;;;;;;;;;;;;;;22.30;44.28;99626.63;2066776;28;854;-60
2022/05/28 03:00:30;;;;;;;;;;;;;;;22.30;44.98;99621.25;2066574;28;1032;-60
2022/05/28 03:01:33;;;;;;;;;;;;;;;22.30;45.35;99623.94;2066590;28;835;-61
2022/05/28 03:02:33;;;;;;;;;;;;;;;22.31;45.03;99627.50;2058010;28;733;-60
2022/05/28 03:03:33;;;;;;;;;;;;;;;22.30;45.03;99629.31;2057978;28;974;-61
2022/05/28 03:04:33;;;;;;;;;;;;;;;22.29;44.75;99633.00;2066507;28;859;-60
2022/05/28 03:05:33;;;;;;;;;;;;;;;22.30;44.77;99625.75;2066530;28;1894;-60
2022/05/28 03:06:35;;;;;;;;;;;;;;;22.29;44.80;99630.28;2066560;28;890;-60
2022/05/28 03:07:35;;;;;;;;;;;;;;;22.29;45.14;99630.28;2066617;28;914;-60
2022/05/28 03:08:36;;;;;;;;;;;;;;;22.29;44.60;99629.41;2066606;28;760;-60
2022/05/28 03:09:36;;;;;;;;;;;;;;;22.29;44.70;99633.00;2066617;28;788;-60
2022/05/28 03:10:36;;;;;;;;;;;;;;;22.28;45.54;99636.66;2066476;28;776;-60
2022/05/28 03:11:37;;;;;;;;;;;;;;;22.29;45.04;99632.09;2066534;28;974;-61
2022/05/28 03:12:38;;;;;;;;;;;;;;;22.29;45.29;99632.09;2066544;28;820;-60
2022/05/28 03:13:39;;;;;;;;;;;;;;;22.28;45.20;99633.94;2066819;28;877;-60
2022/05/28 03:14:39;;;;;;;;;;;;;;;22.29;44.43;99634.81;2066589;28;800;-61
2022/05/28 03:15:39;;;;;;;;;;;;;;;22.28;45.35;99633.94;2066471;28;868;-60
2022/05/28 03:16:40;;;;;;;;;;;;;;;22.29;45.48;99632.09;2066491;28;994;-60
2022/05/28 03:17:40;;;;;;;;;;;;;;;22.29;44.62;99629.41;2057730;28;1240;-60
2022/05/28 03:18:40;;;;;;;;;;;;;;;22.28;45.56;99633.94;2057920;28;974;-60
2022/05/28 03:19:40;;;;;;;;;;;;;;;22.29;44.84;99626.72;2065789;28;1414;-60
2022/05/28 03:20:40;;;;;;;;;;;;;;;22.29;44.48;99629.41;2065891;28;918;-60
2022/05/28 03:21:40;;;;;;;;;;;;;;;22.28;45.49;99633.94;2066470;28;986;-60
2022/05/28 03:22:40;;;;;;;;;;;;;;;22.27;45.04;99637.59;2066659;28;865;-60
2022/05/28 03:23:41;;;;;;;;;;;;;;;22.27;44.63;99637.59;2066500;28;892;-60
2022/05/28 03:24:41;;;;;;;;;;;;;;;22.27;44.90;99637.59;2066541;28;929;-60
2022/05/28 03:25:41;;;;;;;;;;;;;;;22.27;45.05;99636.72;2066437;28;1977;-60
2022/05/28 03:26:41;;;;;;;;;;;;;;;22.27;44.99;99637.59;2066497;28;1041;-60
2022/05/28 03:27:41;;;;;;;;;;;;;;;22.27;44.70;99637.59;2066508;28;1025;-60
2022/05/28 03:28:42;;;;;;;;;;;;;;;22.26;45.20;99633.16;2066490;28;1045;-60
2022/05/28 03:29:42;;;;;;;;;;;;;;;22.27;45.21;99643.00;2066537;28;861;-60
2022/05/28 03:30:42;;;;;;;;;;;;;;;22.27;45.57;99637.59;2066472;28;786;-60
2022/05/28 03:31:42;;;;;;;;;;;;;;;22.26;45.32;99633.16;2066483;28;1037;-60
2022/05/28 03:32:42;;;;;;;;;;;;;;;22.27;45.51;99636.72;2058432;28;848;-61
2022/05/28 03:33:43;;;;;;;;;;;;;;;22.26;44.86;99635.88;2059375;28;852;-61
2022/05/28 03:34:43;;;;;;;;;;;;;;;22.25;44.60;99636.81;2068016;28;966;-60
2022/05/28 03:35:43;;;;;;;;;;;;;;;22.26;44.76;99633.16;2068186;28;782;-60
2022/05/28 03:36:43;;;;;;;;;;;;;;;22.26;44.75;99634.97;2068061;28;809;-60
2022/05/28 03:37:43;;;;;;;;;;;;;;;22.26;45.24;99632.28;2068041;28;741;-61
2022/05/28 03:38:44;;;;;;;;;;;;;;;22.25;45.31;99639.53;2068017;28;899;-60
2022/05/28 03:39:44;;;;;;;;;;;;;;;22.26;45.63;99640.38;2068056;28;812;-60
2022/05/28 03:40:44;;;;;;;;;;;;;;;22.25;44.88;99644.91;2068018;28;903;-60
2022/05/28 03:41:44;;;;;;;;;;;;;;;22.25;44.51;99641.34;2067980;28;1014;-60
2022/05/28 03:42:44;;;;;;;;;;;;;;;22.24;45.37;99637.78;2067945;28;986;-60
2022/05/28 03:43:44;;;;;;;;;;;;;;;22.25;44.75;99634.13;2068025;28;764;-60
2022/05/28 03:44:45;;;;;;;;;;;;;;;22.24;44.89;99635.09;2068058;28;976;-60
2022/05/28 03:45:45;;;;;;;;;;;;;;;22.24;45.08;99637.78;2067841;28;1886;-60
2022/05/28 03:46:45;;;;;;;;;;;;;;;22.25;45.64;99644.03;2067942;28;1052;-60
2022/05/28 03:47:45;;;;;;;;;;;;;;;22.25;44.92;99639.53;2067966;28;887;-60
2022/05/28 03:48:46;;;;;;;;;;;;;;;22.25;44.70;99642.22;2059238;28;1308;-60
2022/05/28 03:49:46;;;;;;;;;;;;;;;22.24;45.79;99640.47;2059229;28;1454;-60
2022/05/28 03:50:47;;;;;;;;;;;;;;;22.24;45.48;99645.88;2067330;28;816;-60
2022/05/28 03:51:47;;;;;;;;;;;;;;;22.24;45.40;99643.19;2067956;28;1021;-60
2022/05/28 03:52:47;;;;;;;;;;;;;;;22.24;45.09;99647.69;2067932;28;994;-60
2022/05/28 03:53:48;;;;;;;;;;;;;;;22.23;45.20;99646.84;2067889;28;1029;-60
2022/05/28 03:54:48;;;;;;;;;;;;;;;22.23;44.82;99644.13;2067900;28;832;-60
2022/05/28 03:55:48;;;;;;;;;;;;;;;22.24;45.42;99645.88;2067900;28;808;-60
2022/05/28 03:56:49;;;;;;;;;;;;;;;22.23;45.41;99646.84;2059230;28;817;-60
2022/05/28 03:57:49;;;;;;;;;;;;;;;22.23;45.67;99646.84;2059180;28;1347;-59
2022/05/28 03:58:50;;;;;;;;;;;;;;;22.22;45.01;99647.78;2067846;28;990;-60
2022/05/28 03:59:50;;;;;;;;;;;;;;;22.23;44.89;99648.66;2067883;28;883;-60
2022/05/28 04:00:50;;;;;;;;;;;;;;;22.23;45.67;99652.22;2067888;28;904;-60
2022/05/28 04:01:53;;;;;;;;;;;;;;;22.71;44.17;99653.94;2067889;28;1055;-60
2022/05/28 04:02:53;;;;;;;;;;;;;;;23.76;42.12;99647.34;2067821;28;793;-60
2022/05/28 04:03:53;;;;;;;;;;;;;;;24.43;40.53;99648.38;2067864;28;863;-60
2022/05/28 04:04:53;;;;;;;;;;;;;;;24.93;39.33;99656.66;2067787;28;990;-60
2022/05/28 04:05:53;;;;;;;;;;;;;;;25.27;38.53;99647.97;2067762;28;1886;-60
2022/05/28 04:06:54;;;;;;;;;;;;;;;25.63;37.25;99643.56;2067811;28;1017;-60
2022/05/28 04:07:54;;;;;;;;;;;;;;;25.89;37.18;99647.09;2067789;28;1033;-60
2022/05/28 04:08:54;;;;;;;;;;;;;;;26.13;36.12;99646.25;2067903;28;817;-60
2022/05/28 04:09:54;;;;;;;;;;;;;;;26.30;35.88;99644.09;2067790;28;966;-60
2022/05/28 04:10:54;;;;;;;;;;;;;;;26.47;35.17;99648.22;2067765;28;974;-60
2022/05/28 04:11:54;;;;;;;;;;;;;;;26.68;35.35;99650.25;2058995;28;650;-60
2022/05/28 04:12:54;;;;;;;;;;;;;;;26.92;34.65;99652.94;2059159;28;774;-61
2022/05/28 04:13:55;;;;;;;;;;;;;;;27.13;34.43;99647.63;2067697;28;879;-60
2022/05/28 04:14:55;;;;;;;;;;;;;;;27.41;33.68;99658.97;2067760;28;999;-60
2022/05/28 04:15:55;;;;;;;;;;;;;;;27.44;33.63;99657.88;2067694;28;712;-61
2022/05/28 04:16:55;;;;;;;;;;;;;;;27.57;33.66;99655.94;2067706;28;896;-60
2022/05/28 04:17:55;;;;;;;;;;;;;;;27.77;33.11;99648.84;2067586;28;1442;-60
2022/05/28 04:18:56;;;;;;;;;;;;;;;28.03;32.61;99653.09;2067735;28;800;-60
2022/05/28 04:19:56;;;;;;;;;;;;;;;28.10;32.32;99648.88;2067689;28;1006;-61
2022/05/28 04:20:56;;;;;;;;;;;;;;;28.33;32.48;99657.84;2067723;28;827;-60
2022/05/28 04:21:56;;;;;;;;;;;;;;;28.52;32.18;99650.84;2067644;28;1034;-61
2022/05/28 04:22:56;;;;;;;;;;;;;;;28.53;31.59;99652.56;2067767;28;832;-60
2022/05/28 04:23:57;;;;;;;;;;;;;;;28.63;31.90;99652.63;2067687;28;856;-60
2022/05/28 04:24:57;;;;;;;;;;;;;;;28.80;31.34;99657.50;2067651;28;688;-60
2022/05/28 04:25:57;;;;;;;;;;;;;;;28.85;31.17;99652.50;2067590;28;1973;-60
2022/05/28 04:26:58;;;;;;;;;;;;;;;29.03;31.35;99656.47;2067685;28;1018;-60
2022/05/28 04:27:58;;;;;;;;;;;;;;;29.18;30.67;99652.38;2067662;28;915;-60
2022/05/28 04:28:58;;;;;;;;;;;;;;;29.28;30.62;99656.00;2067615;28;967;-60
2022/05/28 04:29:59;;;;;;;;;;;;;;;29.26;30.82;99655.28;2067681;28;796;-60
2022/05/28 04:30:59;;;;;;;;;;;;;;;29.39;30.54;99659.69;2067642;28;824;-60
2022/05/28 04:31:59;;;;;;;;;;;;;;;29.44;30.48;99655.53;2059027;28;1600;-60
2022/05/28 04:33:00;;;;;;;;;;;;;;;29.48;30.43;99656.13;2058981;28;982;-61
2022/05/28 04:34:01;;;;;;;;;;;;;;;29.57;30.22;99665.34;2067628;28;986;-60
2022/05/28 04:35:01;;;;;;;;;;;;;;;29.52;30.17;99664.88;2067593;28;978;-60
2022/05/28 04:36:01;;;;;;;;;;;;;;;29.62;30.39;99673.13;2067581;28;674;-60
2022/05/28 04:37:01;;;;;;;;;;;;;;;29.69;30.02;99664.22;2067517;28;1295;-60
2022/05/28 04:38:01;;;;;;;;;;;;;;;29.78;29.87;99661.66;2067559;28;868;-61
2022/05/28 04:39:02;;;;;;;;;;;;;;;29.84;29.91;99661.97;2058902;28;879;-60
2022/05/28 04:40:03;;;;;;;;;;;;;;;29.79;29.82;99666.13;2058922;28;938;-61
2022/05/28 04:41:03;;;;;;;;;;;;;;;29.97;30.01;99663.56;2067576;28;1021;-60
2022/05/28 04:42:04;;;;;;;;;;;;;;;30.02;29.57;99664.03;2067532;28;974;-61
2022/05/28 04:43:04;;;;;;;;;;;;;;;29.95;30.07;99663.72;2067570;28;898;-61
2022/05/28 04:44:05;;;;;;;;;;;;;;;29.99;29.90;99670.66;2066618;28;868;-61
2022/05/28 04:45:05;;;;;;;;;;;;;;;30.12;29.06;99661.31;2067287;28;681;-61
2022/05/28 04:46:05;;;;;;;;;;;;;;;30.26;29.57;99670.97;2067459;28;1960;-61
2022/05/28 04:47:05;;;;;;;;;;;;;;;30.44;29.17;99662.91;2067527;28;1006;-60
2022/05/28 04:48:06;;;;;;;;;;;;;;;30.52;29.21;99668.53;2067458;28;938;-60
2022/05/28 04:49:06;;;;;;;;;;;;;;;30.29;29.00;99671.53;2067694;28;756;-61
2022/05/28 04:50:07;;;;;;;;;;;;;;;30.40;28.95;99670.50;2067517;28;816;-60
2022/05/28 04:51:07;;;;;;;;;;;;;;;30.49;28.74;99668.81;2067488;28;973;-61
2022/05/28 04:52:07;;;;;;;;;;;;;;;30.30;29.09;99672.41;2067450;28;835;-60
2022/05/28 04:53:07;;;;;;;;;;;;;;;30.40;28.96;99666.94;2067450;28;1025;-60
2022/05/28 04:54:07;;;;;;;;;;;;;;;30.55;28.67;99667.34;2067464;28;817;-61
2022/05/28 04:55:08;;;;;;;;;;;;;;;30.46;28.90;99669.09;2067443;28;1018;-61
2022/05/28 04:56:08;;;;;;;;;;;;;;;30.63;28.92;99677.56;2067566;28;1001;-61
2022/05/28 04:57:09;;;;;;;;;;;;;;;30.74;28.31;99674.69;2058729;28;789;-61
2022/05/28 04:58:10;;;;;;;;;;;;;;;30.85;28.25;99677.25;2058819;28;1053;-61
2022/05/28 04:59:10;;;;;;;;;;;;;;;30.97;27.69;99679.84;2067417;28;831;-61
2022/05/28 05:00:12;;;;;;;;;;;;;;;30.84;28.11;99678.28;2067400;28;994;-61
2022/05/28 05:01:14;;;;;;;;;;;;;;;30.54;28.48;99673.81;2058665;28;1188;-60
2022/05/28 05:02:15;;;;;;;;;;;;;;;30.55;28.43;99672.81;2058861;28;872;-61
2022/05/28 05:03:15;;;;;;;;;;;;;;;30.79;27.80;99680.59;2067537;28;867;-60
2022/05/28 05:04:15;;;;;;;;;;;;;;;30.88;27.85;99670.66;2067366;28;983;-60
2022/05/28 05:05:16;;;;;;;;;;;;;;;30.69;28.13;99672.41;2067417;28;765;-61
2022/05/28 05:06:16;;;;;;;;;;;;;;;30.77;27.89;99682.59;2067347;28;1894;-61
2022/05/28 05:07:16;;;;;;;;;;;;;;;30.91;27.64;99676.69;2067486;28;979;-60
2022/05/28 05:08:16;;;;;;;;;;;;;;;30.79;27.81;99677.84;2067447;28;994;-61
2022/05/28 05:09:16;;;;;;;;;;;;;;;30.66;28.00;99677.28;2067305;28;1018;-61
2022/05/28 05:10:16;;;;;;;;;;;;;;;30.52;28.13;99676.72;2067342;28;839;-60
2022/05/28 05:11:17;;;;;;;;;;;;;;;30.80;28.05;99685.03;2067375;28;753;-61
2022/05/28 05:12:18;;;;;;;;;;;;;;;30.75;28.14;99681.88;2067294;28;812;-61
2022/05/28 05:13:18;;;;;;;;;;;;;;;30.50;28.22;99681.47;2067295;28;769;-60
2022/05/28 05:14:18;;;;;;;;;;;;;;;30.69;27.86;99685.19;2067420;28;835;-60
2022/05/28 05:15:19;;;;;;;;;;;;;;;30.94;27.68;99685.59;2067338;28;892;-61
2022/05/28 05:16:19;;;;;;;;;;;;;;;31.26;27.24;99687.97;2067261;28;1041;-61
2022/05/28 05:17:20;;;;;;;;;;;;;;;31.05;27.34;99688.16;2067137;28;1079;-61
2022/05/28 05:18:20;;;;;;;;;;;;;;;30.91;27.64;99686.78;2067291;28;864;-60
2022/05/28 05:19:20;;;;;;;;;;;;;;;30.46;28.15;99689.06;2058565;28;868;-61
2022/05/28 05:20:20;;;;;;;;;;;;;;;30.72;27.74;99687.63;2058769;28;985;-60
2022/05/28 05:21:20;;;;;;;;;;;;;;;30.69;27.97;99682.47;2066464;28;1014;-60
2022/05/28 05:22:21;;;;;;;;;;;;;;;30.88;27.80;99687.06;2066634;28;994;-61
2022/05/28 05:23:21;;;;;;;;;;;;;;;30.98;27.53;99692.50;2058510;28;966;-61
2022/05/28 05:24:22;;;;;;;;;;;;;;;31.07;27.01;99694.34;2058600;28;979;-60
2022/05/28 05:25:23;;;;;;;;;;;;;;;31.27;26.97;99692.44;2067220;28;800;-61
2022/05/28 05:26:24;;;;;;;;;;;;;;;31.04;27.25;99694.66;2067154;28;1907;-60
2022/05/28 05:27:24;;;;;;;;;;;;;;;31.11;27.00;99693.03;2067263;28;926;-60
2022/05/28 05:28:24;;;;;;;;;;;;;;;30.70;27.32;99692.38;2067218;28;1006;-60